createdAt,value
2019-01-30T00:00:06.600Z,929.49
2019-01-30T00:01:06.668Z,929.51
2019-01-30T00:02:06.937Z,929.53
2019-01-30T00:03:06.730Z,929.55
2019-01-30T00:04:06.801Z,929.58
2019-01-30T00:05:06.858Z,929.57
2019-01-30T00:06:06.886Z,929.54
2019-01-30T00:07:06.911Z,929.58
2019-01-30T00:08:07.165Z,929.59
2019-01-30T00:09:07.031Z,929.59
2019-01-30T00:10:07.052Z,929.58
2019-01-30T00:11:07.125Z,929.59
2019-01-30T00:12:09.656Z,929.58
2019-01-30T00:13:07.545Z,929.60
2019-01-30T00:14:07.457Z,929.60
2019-01-30T00:15:07.318Z,929.63
2019-01-30T00:16:07.338Z,929.61
2019-01-30T00:17:07.435Z,929.62
2019-01-30T00:18:07.448Z,929.66
2019-01-30T00:19:07.497Z,929.63
2019-01-30T00:20:07.564Z,929.63
2019-01-30T00:21:07.595Z,929.63
2019-01-30T00:22:07.654Z,929.63
2019-01-30T00:23:07.699Z,929.63
2019-01-30T00:24:07.979Z,929.60
2019-01-30T00:25:07.790Z,929.61
2019-01-30T00:26:07.820Z,929.60
2019-01-30T00:27:07.869Z,929.63
2019-01-30T00:28:07.912Z,929.59
2019-01-30T00:29:07.942Z,929.60
2019-01-30T00:30:08.018Z,929.64
2019-01-30T00:31:08.057Z,929.61
2019-01-30T00:32:08.061Z,929.67
2019-01-30T00:33:08.138Z,929.67
2019-01-30T00:34:08.142Z,929.70
2019-01-30T00:35:08.315Z,929.71
2019-01-30T00:36:08.243Z,929.72
2019-01-30T00:37:08.299Z,929.71
2019-01-30T00:38:08.349Z,929.70
2019-01-30T00:39:08.425Z,929.74
2019-01-30T00:40:08.462Z,929.71
2019-01-30T00:41:08.514Z,929.68
2019-01-30T00:42:08.584Z,929.68
2019-01-30T00:43:08.610Z,929.73
2019-01-30T00:44:08.647Z,929.67
2019-01-30T00:45:08.679Z,929.69
2019-01-30T00:46:08.925Z,929.67
2019-01-30T00:47:15.751Z,929.74
2019-01-30T00:48:08.886Z,929.68
2019-01-30T00:49:08.937Z,929.67
2019-01-30T00:50:08.982Z,929.73
2019-01-30T00:51:09.013Z,929.73
2019-01-30T00:52:09.076Z,929.74
2019-01-30T00:53:09.116Z,929.76
2019-01-30T00:54:09.146Z,929.76
2019-01-30T00:55:09.251Z,929.76
2019-01-30T00:56:09.409Z,929.74
2019-01-30T00:57:09.335Z,929.74
2019-01-30T00:58:09.349Z,929.74
2019-01-30T00:59:09.384Z,929.77
2019-01-30T01:00:14.535Z,929.75
2019-01-30T01:01:09.504Z,929.78
2019-01-30T01:02:09.679Z,929.79
2019-01-30T01:03:09.582Z,929.79
2019-01-30T01:04:09.632Z,929.80
2019-01-30T01:05:09.714Z,929.84
2019-01-30T01:06:09.738Z,929.82
2019-01-30T01:07:09.745Z,929.87
2019-01-30T01:08:09.905Z,929.86
2019-01-30T01:09:09.846Z,929.82
2019-01-30T01:10:09.873Z,929.86
2019-01-30T01:11:09.977Z,929.88
2019-01-30T01:12:09.983Z,929.89
2019-01-30T01:13:10.143Z,929.91
2019-01-30T01:14:10.077Z,929.92
2019-01-30T01:15:10.114Z,929.95
2019-01-30T01:16:10.200Z,929.96
2019-01-30T01:17:10.255Z,929.99
2019-01-30T01:18:10.316Z,929.98
2019-01-30T01:19:10.343Z,929.98
2019-01-30T01:20:10.389Z,930.01
2019-01-30T01:21:10.477Z,930.04
2019-01-30T01:22:10.488Z,930.02
2019-01-30T01:23:10.653Z,930.03
2019-01-30T01:24:10.598Z,930.06
2019-01-30T01:25:10.647Z,930.03
2019-01-30T01:26:10.657Z,930.01
2019-01-30T01:27:10.722Z,930.01
2019-01-30T01:28:10.748Z,930.01
2019-01-30T01:29:10.809Z,930.02
2019-01-30T01:30:10.847Z,929.95
2019-01-30T01:31:10.919Z,930.00
2019-01-30T01:32:10.964Z,929.98
2019-01-30T01:33:11.122Z,930.01
2019-01-30T01:34:11.250Z,930.01
2019-01-30T01:35:11.145Z,930.04
2019-01-30T01:36:11.153Z,930.01
2019-01-30T01:37:11.174Z,930.04
2019-01-30T01:38:11.256Z,930.02
2019-01-30T01:39:11.387Z,930.05
2019-01-30T01:40:11.344Z,930.03
2019-01-30T01:41:11.413Z,930.05
2019-01-30T01:42:11.438Z,930.07
2019-01-30T01:43:11.495Z,930.09
2019-01-30T01:44:11.545Z,930.06
2019-01-30T01:45:11.643Z,930.10
2019-01-30T01:46:11.640Z,930.08
2019-01-30T01:47:11.694Z,930.10
2019-01-30T01:48:11.760Z,930.06
2019-01-30T01:49:11.940Z,930.09
2019-01-30T01:50:11.861Z,930.07
2019-01-30T01:51:11.900Z,930.04
2019-01-30T01:52:11.949Z,930.06
2019-01-30T01:53:11.975Z,929.98
2019-01-30T01:54:12.006Z,929.97
2019-01-30T01:55:12.071Z,929.97
2019-01-30T01:56:12.111Z,930.00
2019-01-30T01:57:12.133Z,930.01
2019-01-30T01:58:12.244Z,930.00
2019-01-30T01:59:12.290Z,929.98
2019-01-30T02:00:12.318Z,929.96
2019-01-30T02:01:12.473Z,929.95
2019-01-30T02:02:12.391Z,929.88
2019-01-30T02:03:12.415Z,929.86
2019-01-30T02:04:12.502Z,929.90
2019-01-30T02:05:12.539Z,929.91
2019-01-30T02:06:12.562Z,929.91
2019-01-30T02:07:12.610Z,929.90
2019-01-30T02:08:12.681Z,929.88
2019-01-30T02:09:12.743Z,929.86
2019-01-30T02:10:12.851Z,929.90
2019-01-30T02:11:12.830Z,929.96
2019-01-30T02:12:12.915Z,929.95
2019-01-30T02:13:12.940Z,929.98
2019-01-30T02:14:12.998Z,929.99
2019-01-30T02:15:13.062Z,930.00
2019-01-30T02:16:13.066Z,929.98
2019-01-30T02:17:13.082Z,930.00
2019-01-30T02:18:13.144Z,930.00
2019-01-30T02:19:13.173Z,929.95
2019-01-30T02:20:13.247Z,929.99
2019-01-30T02:21:13.281Z,929.97
2019-01-30T02:22:13.359Z,929.99
2019-01-30T02:23:13.380Z,930.00
2019-01-30T02:24:13.404Z,929.99
2019-01-30T02:25:13.470Z,929.98
2019-01-30T02:26:13.529Z,929.94
2019-01-30T02:27:13.590Z,929.96
2019-01-30T02:28:13.677Z,929.94
2019-01-30T02:29:13.668Z,929.89
2019-01-30T02:30:13.713Z,929.91
2019-01-30T02:31:13.746Z,929.87
2019-01-30T02:32:13.828Z,929.91
2019-01-30T02:33:13.844Z,929.87
2019-01-30T02:34:13.913Z,929.86
2019-01-30T02:35:13.992Z,929.89
2019-01-30T02:36:14.012Z,929.88
2019-01-30T02:37:14.149Z,929.83
2019-01-30T02:38:14.086Z,929.87
2019-01-30T02:39:14.138Z,929.85
2019-01-30T02:40:14.173Z,929.80
2019-01-30T02:41:14.240Z,929.84
2019-01-30T02:42:14.352Z,929.83
2019-01-30T02:43:14.378Z,929.79
2019-01-30T02:44:14.381Z,929.76
2019-01-30T02:45:14.413Z,929.76
2019-01-30T02:46:14.489Z,929.73
2019-01-30T02:47:14.502Z,929.74
2019-01-30T02:48:14.555Z,929.71
2019-01-30T02:49:14.649Z,929.69
2019-01-30T02:50:14.653Z,929.73
2019-01-30T02:51:14.712Z,929.75
2019-01-30T02:52:14.783Z,929.72
2019-01-30T02:53:14.783Z,929.73
2019-01-30T02:54:14.848Z,929.70
2019-01-30T02:55:14.886Z,929.72
2019-01-30T02:56:14.925Z,929.75
2019-01-30T02:57:15.008Z,929.76
2019-01-30T02:58:15.025Z,929.78
2019-01-30T02:59:15.094Z,929.75
2019-01-30T03:00:15.129Z,929.72
2019-01-30T03:01:15.191Z,929.75
2019-01-30T03:02:15.223Z,929.76
2019-01-30T03:03:15.275Z,929.69
2019-01-30T03:04:15.330Z,929.75
2019-01-30T03:05:15.352Z,929.73
2019-01-30T03:06:15.431Z,929.70
2019-01-30T03:07:15.479Z,929.74
2019-01-30T03:08:15.501Z,929.72
2019-01-30T03:09:15.552Z,929.68
2019-01-30T03:10:15.610Z,929.68
2019-01-30T03:11:15.632Z,929.70
2019-01-30T03:12:15.788Z,929.63
2019-01-30T03:13:15.760Z,929.67
2019-01-30T03:14:15.810Z,929.59
2019-01-30T03:15:15.843Z,929.62
2019-01-30T03:16:15.924Z,929.60
2019-01-30T03:17:15.945Z,929.55
2019-01-30T03:18:15.987Z,929.58
2019-01-30T03:19:16.045Z,929.59
2019-01-30T03:20:16.079Z,929.55
2019-01-30T03:21:16.135Z,929.59
2019-01-30T03:22:16.165Z,929.56
2019-01-30T03:23:16.223Z,929.48
2019-01-30T03:24:16.296Z,929.53
2019-01-30T03:25:16.335Z,929.53
2019-01-30T03:26:16.373Z,929.51
2019-01-30T03:27:16.409Z,929.53
2019-01-30T03:28:16.481Z,929.52
2019-01-30T03:29:16.544Z,929.52
2019-01-30T03:30:16.565Z,929.52
2019-01-30T03:31:18.841Z,929.52
2019-01-30T03:32:16.670Z,929.48
2019-01-30T03:33:16.707Z,929.43
2019-01-30T03:34:16.767Z,929.45
2019-01-30T03:35:16.827Z,929.42
2019-01-30T03:36:16.860Z,929.37
2019-01-30T03:37:16.913Z,929.39
2019-01-30T03:38:16.934Z,929.39
2019-01-30T03:39:17.007Z,929.38
2019-01-30T03:40:17.042Z,929.40
2019-01-30T03:41:17.106Z,929.41
2019-01-30T03:42:17.157Z,929.44
2019-01-30T03:43:17.206Z,929.41
2019-01-30T03:44:17.239Z,929.34
2019-01-30T03:45:17.309Z,929.35
2019-01-30T03:46:17.324Z,929.33
2019-01-30T03:47:17.394Z,929.33
2019-01-30T03:48:17.445Z,929.33
2019-01-30T03:49:17.482Z,929.31
2019-01-30T03:50:17.511Z,929.27
2019-01-30T03:51:17.611Z,929.28
2019-01-30T03:52:17.612Z,929.26
2019-01-30T03:53:17.819Z,929.26
2019-01-30T03:54:17.712Z,929.27
2019-01-30T03:55:17.763Z,929.20
2019-01-30T03:56:17.815Z,929.23
2019-01-30T03:57:17.862Z,929.17
2019-01-30T03:58:17.897Z,929.15
2019-01-30T03:59:17.955Z,929.16
2019-01-30T04:00:18.011Z,929.10
2019-01-30T04:01:26.446Z,929.07
2019-01-30T04:02:18.101Z,929.06
2019-01-30T04:03:18.150Z,929.01
2019-01-30T04:04:18.212Z,929.00
2019-01-30T04:05:18.252Z,928.96
2019-01-30T04:06:18.282Z,928.95
2019-01-30T04:07:18.343Z,928.93
2019-01-30T04:08:18.384Z,928.93
2019-01-30T04:09:18.449Z,928.89
2019-01-30T04:10:18.524Z,928.95
2019-01-30T04:11:18.528Z,928.94
2019-01-30T04:12:18.577Z,928.98
2019-01-30T04:13:18.740Z,928.95
2019-01-30T04:14:18.864Z,929.00
2019-01-30T04:15:18.722Z,928.93
2019-01-30T04:16:18.775Z,928.93
2019-01-30T04:17:18.807Z,928.89
2019-01-30T04:18:18.882Z,928.91
2019-01-30T04:19:18.905Z,928.87
2019-01-30T04:20:18.969Z,928.84
2019-01-30T04:21:19.024Z,928.86
2019-01-30T04:22:19.052Z,928.80
2019-01-30T04:23:19.099Z,928.82
2019-01-30T04:24:19.157Z,928.82
2019-01-30T04:25:19.343Z,928.79
2019-01-30T04:26:19.223Z,928.79
2019-01-30T04:27:19.282Z,928.79
2019-01-30T04:28:19.321Z,928.78
2019-01-30T04:29:19.389Z,928.69
2019-01-30T04:30:19.452Z,928.67
2019-01-30T04:31:19.518Z,928.65
2019-01-30T04:32:19.514Z,928.64
2019-01-30T04:33:19.594Z,928.65
2019-01-30T04:34:19.645Z,928.62
2019-01-30T04:35:19.663Z,928.64
2019-01-30T04:36:19.727Z,928.65
2019-01-30T04:37:19.778Z,928.64
2019-01-30T04:38:19.824Z,928.66
2019-01-30T04:39:19.906Z,928.60
2019-01-30T04:40:19.910Z,928.59
2019-01-30T04:41:19.959Z,928.60
2019-01-30T04:42:20.008Z,928.56
2019-01-30T04:43:20.061Z,928.52
2019-01-30T04:44:20.113Z,928.54
2019-01-30T04:45:20.156Z,928.47
2019-01-30T04:46:20.212Z,928.48
2019-01-30T04:47:20.307Z,928.44
2019-01-30T04:48:20.291Z,928.40
2019-01-30T04:49:20.357Z,928.42
2019-01-30T04:50:20.404Z,928.39
2019-01-30T04:51:20.433Z,928.40
2019-01-30T04:52:20.489Z,928.41
2019-01-30T04:53:20.542Z,928.39
2019-01-30T04:54:20.575Z,928.41
2019-01-30T04:55:20.651Z,928.39
2019-01-30T04:56:20.706Z,928.37
2019-01-30T04:57:20.724Z,928.34
2019-01-30T04:58:20.788Z,928.35
2019-01-30T04:59:20.817Z,928.36
2019-01-30T05:00:20.864Z,928.36
2019-01-30T05:01:20.940Z,928.39
2019-01-30T05:02:20.971Z,928.38
2019-01-30T05:03:21.034Z,928.37
2019-01-30T05:04:21.121Z,928.39
2019-01-30T05:05:21.120Z,928.38
2019-01-30T05:06:21.181Z,928.40
2019-01-30T05:07:21.199Z,928.34
2019-01-30T05:08:21.262Z,928.28
2019-01-30T05:09:21.363Z,928.27
2019-01-30T05:10:21.360Z,928.21
2019-01-30T05:11:21.402Z,928.21
2019-01-30T05:12:21.446Z,928.22
2019-01-30T05:13:21.545Z,928.24
2019-01-30T05:14:21.567Z,928.24
2019-01-30T05:15:21.612Z,928.23
2019-01-30T05:16:21.656Z,928.22
2019-01-30T05:17:21.705Z,928.24
2019-01-30T05:18:21.719Z,928.23
2019-01-30T05:19:21.770Z,928.23
2019-01-30T05:20:21.827Z,928.28
2019-01-30T05:21:21.875Z,928.25
2019-01-30T05:22:21.922Z,928.22
2019-01-30T05:23:21.983Z,928.23
2019-01-30T05:24:22.049Z,928.19
2019-01-30T05:25:22.095Z,928.20
2019-01-30T05:26:22.116Z,928.20
2019-01-30T05:27:22.170Z,928.17
2019-01-30T05:28:22.230Z,928.19
2019-01-30T05:29:22.273Z,928.20
2019-01-30T05:30:22.349Z,928.16
2019-01-30T05:31:22.349Z,928.19
2019-01-30T05:32:22.424Z,928.15
2019-01-30T05:33:22.432Z,928.09
2019-01-30T05:34:22.497Z,928.09
2019-01-30T05:35:22.540Z,928.13
2019-01-30T05:36:22.601Z,928.08
2019-01-30T05:37:22.654Z,928.08
2019-01-30T05:38:22.702Z,928.08
2019-01-30T05:39:22.739Z,928.09
2019-01-30T05:40:22.821Z,928.06
2019-01-30T05:41:22.870Z,928.03
2019-01-30T05:42:22.915Z,928.02
2019-01-30T05:43:22.927Z,928.02
2019-01-30T05:44:22.977Z,928.01
2019-01-30T05:45:23.032Z,927.98
2019-01-30T05:46:23.061Z,928.05
2019-01-30T05:47:23.135Z,927.99
2019-01-30T05:48:23.211Z,927.99
2019-01-30T05:49:23.229Z,927.98
2019-01-30T05:50:23.363Z,927.99
2019-01-30T05:51:23.312Z,927.97
2019-01-30T05:52:23.349Z,927.98
2019-01-30T05:53:23.413Z,927.99
2019-01-30T05:54:23.448Z,928.00
2019-01-30T05:55:23.484Z,928.03
2019-01-30T05:56:23.564Z,928.04
2019-01-30T05:57:23.590Z,928.03
2019-01-30T05:58:23.637Z,928.06
2019-01-30T05:59:23.697Z,928.01
2019-01-30T06:00:23.727Z,928.01
2019-01-30T06:01:23.782Z,928.04
2019-01-30T06:02:23.834Z,928.05
2019-01-30T06:03:23.878Z,928.05
2019-01-30T06:04:23.935Z,928.06
2019-01-30T06:05:24.085Z,928.06
2019-01-30T06:06:24.016Z,928.08
2019-01-30T06:07:24.080Z,928.13
2019-01-30T06:08:24.101Z,928.06
2019-01-30T06:09:24.187Z,928.08
2019-01-30T06:10:24.192Z,928.10
2019-01-30T06:11:24.300Z,928.09
2019-01-30T06:12:24.284Z,928.09
2019-01-30T06:13:24.363Z,928.10
2019-01-30T06:14:24.411Z,928.07
2019-01-30T06:15:24.461Z,928.06
2019-01-30T06:16:24.489Z,928.06
2019-01-30T06:17:24.631Z,928.06
2019-01-30T06:18:24.579Z,928.02
2019-01-30T06:19:24.632Z,928.04
2019-01-30T06:20:24.694Z,928.06
2019-01-30T06:21:24.730Z,928.08
2019-01-30T06:22:24.797Z,928.04
2019-01-30T06:23:24.851Z,927.99
2019-01-30T06:24:24.855Z,928.07
2019-01-30T06:25:24.940Z,928.05
2019-01-30T06:26:24.980Z,928.04
2019-01-30T06:27:25.042Z,928.06
2019-01-30T06:28:28.645Z,928.08
2019-01-30T06:29:25.131Z,928.06
2019-01-30T06:30:25.171Z,928.03
2019-01-30T06:31:27.079Z,928.06
2019-01-30T06:32:25.254Z,928.03
2019-01-30T06:33:25.317Z,928.06
2019-01-30T06:34:25.368Z,928.02
2019-01-30T06:35:25.388Z,927.97
2019-01-30T06:36:25.465Z,927.98
2019-01-30T06:37:25.501Z,928.01
2019-01-30T06:38:25.600Z,927.99
2019-01-30T06:39:25.641Z,927.99
2019-01-30T06:40:25.688Z,928.00
2019-01-30T06:41:25.783Z,927.98
2019-01-30T06:42:25.735Z,927.99
2019-01-30T06:43:25.786Z,927.99
2019-01-30T06:44:25.829Z,927.97
2019-01-30T06:45:25.879Z,927.97
2019-01-30T06:46:25.921Z,927.99
2019-01-30T06:47:25.988Z,927.97
2019-01-30T06:48:26.043Z,927.97
2019-01-30T06:49:26.089Z,927.97
2019-01-30T06:50:26.126Z,927.99
2019-01-30T06:51:26.175Z,927.98
2019-01-30T06:52:26.210Z,927.98
2019-01-30T06:53:26.280Z,928.01
2019-01-30T06:54:26.326Z,927.99
2019-01-30T06:55:26.361Z,927.98
2019-01-30T06:56:26.425Z,927.98
2019-01-30T06:57:26.438Z,927.97
2019-01-30T06:58:26.522Z,927.97
2019-01-30T06:59:26.560Z,927.99
2019-01-30T07:00:26.685Z,928.02
2019-01-30T07:01:26.688Z,928.05
2019-01-30T07:02:32.340Z,928.00
2019-01-30T07:03:26.728Z,927.98
2019-01-30T07:04:26.776Z,928.03
2019-01-30T07:05:26.838Z,928.00
2019-01-30T07:06:26.918Z,928.00
2019-01-30T07:07:26.926Z,928.00
2019-01-30T07:08:26.984Z,928.01
2019-01-30T07:09:27.024Z,927.98
2019-01-30T07:10:27.067Z,927.97
2019-01-30T07:11:27.117Z,928.01
2019-01-30T07:12:27.179Z,928.03
2019-01-30T07:13:27.236Z,927.97
2019-01-30T07:14:27.246Z,928.02
2019-01-30T07:15:27.310Z,928.01
2019-01-30T07:16:27.360Z,928.06
2019-01-30T07:17:27.425Z,928.03
2019-01-30T07:18:27.462Z,928.02
2019-01-30T07:19:27.491Z,927.99
2019-01-30T07:20:27.552Z,928.01
2019-01-30T07:21:27.595Z,928.02
2019-01-30T07:22:27.667Z,928.00
2019-01-30T07:23:27.681Z,928.02
2019-01-30T07:24:27.735Z,928.08
2019-01-30T07:25:27.779Z,928.04
2019-01-30T07:26:27.849Z,928.06
2019-01-30T07:27:27.930Z,928.08
2019-01-30T07:28:27.929Z,928.10
2019-01-30T07:29:28.012Z,928.10
2019-01-30T07:30:28.025Z,928.09
2019-01-30T07:31:28.097Z,928.09
2019-01-30T07:32:28.138Z,928.09
2019-01-30T07:33:28.205Z,928.10
2019-01-30T07:34:28.212Z,928.10
2019-01-30T07:35:28.307Z,928.11
2019-01-30T07:36:28.305Z,928.12
2019-01-30T07:37:28.360Z,928.13
2019-01-30T07:38:28.394Z,928.15
2019-01-30T07:39:28.484Z,928.16
2019-01-30T07:40:28.589Z,928.10
2019-01-30T07:41:28.546Z,928.11
2019-01-30T07:42:28.652Z,928.10
2019-01-30T07:43:28.629Z,928.11
2019-01-30T07:44:28.719Z,928.13
2019-01-30T07:45:28.755Z,928.12
2019-01-30T07:46:28.789Z,928.14
2019-01-30T07:47:28.834Z,928.17
2019-01-30T07:48:29.182Z,928.16
2019-01-30T07:49:28.933Z,928.16
2019-01-30T07:50:28.976Z,928.14
2019-01-30T07:51:29.018Z,928.15
2019-01-30T07:52:29.071Z,928.14
2019-01-30T07:53:29.117Z,928.14
2019-01-30T07:54:29.150Z,928.17
2019-01-30T07:55:29.207Z,928.13
2019-01-30T07:56:29.275Z,928.19
2019-01-30T07:57:29.329Z,928.20
2019-01-30T07:58:29.364Z,928.19
2019-01-30T07:59:31.938Z,928.20
2019-01-30T08:00:29.437Z,928.21
2019-01-30T08:01:29.510Z,928.20
2019-01-30T08:02:29.565Z,928.21
2019-01-30T08:03:29.625Z,928.19
2019-01-30T08:04:29.735Z,928.21
2019-01-30T08:05:29.727Z,928.19
2019-01-30T08:06:29.784Z,928.18
2019-01-30T08:07:29.824Z,928.21
2019-01-30T08:08:29.830Z,928.24
2019-01-30T08:09:29.879Z,928.18
2019-01-30T08:10:29.925Z,928.19
2019-01-30T08:11:30.029Z,928.22
2019-01-30T08:12:30.023Z,928.23
2019-01-30T08:13:30.065Z,928.21
2019-01-30T08:14:30.119Z,928.22
2019-01-30T08:15:30.171Z,928.24
2019-01-30T08:16:30.216Z,928.22
2019-01-30T08:17:30.285Z,928.22
2019-01-30T08:18:30.289Z,928.25
2019-01-30T08:19:30.365Z,928.24
2019-01-30T08:20:30.415Z,928.23
2019-01-30T08:21:30.459Z,928.27
2019-01-30T08:22:30.492Z,928.24
2019-01-30T08:23:30.899Z,928.26
2019-01-30T08:24:30.716Z,928.24
2019-01-30T08:25:30.806Z,928.23
2019-01-30T08:26:31.007Z,928.25
2019-01-30T08:27:30.755Z,928.32
2019-01-30T08:28:30.971Z,928.30
2019-01-30T08:29:30.843Z,928.26
2019-01-30T08:30:30.937Z,928.29
2019-01-30T08:31:31.380Z,928.27
2019-01-30T08:32:31.331Z,928.28
2019-01-30T08:33:31.006Z,928.29
2019-01-30T08:34:31.068Z,928.28
2019-01-30T08:35:31.120Z,928.29
2019-01-30T08:36:31.239Z,928.32
2019-01-30T08:37:31.226Z,928.30
2019-01-30T08:38:31.228Z,928.33
2019-01-30T08:39:31.320Z,928.35
2019-01-30T08:40:31.397Z,928.34
2019-01-30T08:41:31.377Z,928.36
2019-01-30T08:42:31.437Z,928.41
2019-01-30T08:43:31.475Z,928.39
2019-01-30T08:44:31.533Z,928.38
2019-01-30T08:45:31.565Z,928.40
2019-01-30T08:46:31.639Z,928.43
2019-01-30T08:47:31.686Z,928.41
2019-01-30T08:48:31.722Z,928.45
2019-01-30T08:49:31.764Z,928.42
2019-01-30T08:50:31.823Z,928.48
2019-01-30T08:51:31.881Z,928.46
2019-01-30T08:52:31.937Z,928.49
2019-01-30T08:53:31.969Z,928.51
2019-01-30T08:54:32.024Z,928.51
2019-01-30T08:55:32.073Z,928.55
2019-01-30T08:56:38.792Z,928.58
2019-01-30T08:57:32.155Z,928.57
2019-01-30T08:58:32.199Z,928.58
2019-01-30T08:59:32.270Z,928.56
2019-01-30T09:00:32.287Z,928.58
2019-01-30T09:01:32.349Z,928.56
2019-01-30T09:02:32.386Z,928.59
2019-01-30T09:03:32.455Z,928.55
2019-01-30T09:04:32.481Z,928.60
2019-01-30T09:05:32.522Z,928.62
2019-01-30T09:06:32.574Z,928.64
2019-01-30T09:07:43.624Z,928.61
2019-01-30T09:08:32.688Z,928.62
2019-01-30T09:09:32.693Z,928.64
2019-01-30T09:10:32.758Z,928.67
2019-01-30T09:11:32.812Z,928.64
2019-01-30T09:12:32.858Z,928.64
2019-01-30T09:13:32.902Z,928.61
2019-01-30T09:14:32.964Z,928.60
2019-01-30T09:15:32.987Z,928.60
2019-01-30T09:16:33.073Z,928.66
2019-01-30T09:17:33.091Z,928.62
2019-01-30T09:18:33.170Z,928.62
2019-01-30T09:19:33.173Z,928.64
2019-01-30T09:20:33.243Z,928.64
2019-01-30T09:21:33.296Z,928.64
2019-01-30T09:22:33.345Z,928.68
2019-01-30T09:23:33.384Z,928.70
2019-01-30T09:24:33.440Z,928.72
2019-01-30T09:25:33.467Z,928.74
2019-01-30T09:26:33.531Z,928.75
2019-01-30T09:27:33.554Z,928.76
2019-01-30T09:28:33.617Z,928.78
2019-01-30T09:29:33.674Z,928.81
2019-01-30T09:30:33.726Z,928.81
2019-01-30T09:31:33.785Z,928.81
2019-01-30T09:32:33.841Z,928.82
2019-01-30T09:33:33.984Z,928.85
2019-01-30T09:34:33.897Z,928.85
2019-01-30T09:35:34.015Z,928.88
2019-01-30T09:36:34.000Z,928.89
2019-01-30T09:37:34.052Z,928.89
2019-01-30T09:38:34.085Z,928.91
2019-01-30T09:39:34.140Z,928.93
2019-01-30T09:40:34.186Z,928.90
2019-01-30T09:41:34.277Z,928.91
2019-01-30T09:42:34.300Z,928.89
2019-01-30T09:43:34.378Z,928.95
2019-01-30T09:44:34.395Z,928.92
2019-01-30T09:45:34.449Z,928.87
2019-01-30T09:46:34.544Z,928.95
2019-01-30T09:47:34.516Z,928.92
2019-01-30T09:48:37.009Z,928.98
2019-01-30T09:49:34.630Z,929.01
2019-01-30T09:50:34.683Z,928.96
2019-01-30T09:51:34.741Z,929.00
2019-01-30T09:52:34.807Z,928.98
2019-01-30T09:53:34.846Z,928.98
2019-01-30T09:54:34.897Z,929.00
2019-01-30T09:55:34.964Z,928.99
2019-01-30T09:56:34.983Z,929.01
2019-01-30T09:57:35.037Z,929.00
2019-01-30T09:58:35.072Z,928.99
2019-01-30T09:59:35.173Z,929.02
2019-01-30T10:00:35.180Z,929.05
2019-01-30T10:01:35.229Z,929.09
2019-01-30T10:02:35.256Z,929.09
2019-01-30T10:03:36.637Z,929.09
2019-01-30T10:04:35.364Z,929.08
2019-01-30T10:05:35.413Z,929.08
2019-01-30T10:06:35.511Z,929.13
2019-01-30T10:07:35.507Z,929.09
2019-01-30T10:08:35.552Z,929.07
2019-01-30T10:09:37.593Z,929.13
2019-01-30T10:10:35.642Z,929.12
2019-01-30T10:11:35.794Z,929.13
2019-01-30T10:12:35.759Z,929.15
2019-01-30T10:13:37.509Z,929.16
2019-01-30T10:14:35.857Z,929.18
2019-01-30T10:15:35.902Z,929.23
2019-01-30T10:16:35.951Z,929.23
2019-01-30T10:17:35.991Z,929.24
2019-01-30T10:18:36.048Z,929.29
2019-01-30T10:19:38.679Z,929.25
2019-01-30T10:20:36.198Z,929.33
2019-01-30T10:21:36.190Z,929.32
2019-01-30T10:22:36.242Z,929.38
2019-01-30T10:23:36.312Z,929.36
2019-01-30T10:24:36.392Z,929.33
2019-01-30T10:25:36.421Z,929.31
2019-01-30T10:26:36.463Z,929.31
2019-01-30T10:27:36.506Z,929.31
2019-01-30T10:28:36.580Z,929.30
2019-01-30T10:29:36.653Z,929.33
2019-01-30T10:30:36.683Z,929.34
2019-01-30T10:31:36.758Z,929.32
2019-01-30T10:32:36.789Z,929.33
2019-01-30T10:33:45.695Z,929.37
2019-01-30T10:34:36.903Z,929.33
2019-01-30T10:35:36.929Z,929.31
2019-01-30T10:36:37.041Z,929.29
2019-01-30T10:37:37.048Z,929.29
2019-01-30T10:38:37.119Z,929.27
2019-01-30T10:39:37.176Z,929.24
2019-01-30T10:40:37.272Z,929.24
2019-01-30T10:41:37.286Z,929.30
2019-01-30T10:42:37.313Z,929.31
2019-01-30T10:43:37.397Z,929.31
2019-01-30T10:44:37.433Z,929.35
2019-01-30T10:45:38.272Z,929.38
2019-01-30T10:46:37.551Z,929.38
2019-01-30T10:47:37.635Z,929.43
2019-01-30T10:48:37.724Z,929.40
2019-01-30T10:49:37.738Z,929.40
2019-01-30T10:50:37.813Z,929.41
2019-01-30T10:51:37.904Z,929.40
2019-01-30T10:52:37.930Z,929.45
2019-01-30T10:53:37.985Z,929.42
2019-01-30T10:54:38.033Z,929.47
2019-01-30T10:55:38.094Z,929.46
2019-01-30T10:56:38.164Z,929.42
2019-01-30T10:57:38.205Z,929.39
2019-01-30T10:58:38.275Z,929.47
2019-01-30T10:59:38.313Z,929.47
2019-01-30T11:00:38.396Z,929.52
2019-01-30T11:01:38.452Z,929.48
2019-01-30T11:02:38.503Z,929.49
2019-01-30T11:03:38.564Z,929.48
2019-01-30T11:04:38.615Z,929.54
2019-01-30T11:05:38.700Z,929.57
2019-01-30T11:06:38.735Z,929.55
2019-01-30T11:07:38.799Z,929.58
2019-01-30T11:08:38.861Z,929.56
2019-01-30T11:09:38.925Z,929.54
2019-01-30T11:10:38.999Z,929.57
2019-01-30T11:11:39.047Z,929.53
2019-01-30T11:12:39.108Z,929.52
2019-01-30T11:13:39.263Z,929.52
2019-01-30T11:14:41.039Z,929.50
2019-01-30T11:15:39.343Z,929.50
2019-01-30T11:21:27.446Z,929.51
2019-01-30T11:22:27.611Z,929.51
2019-01-30T11:23:27.578Z,929.48
2019-01-30T11:24:27.633Z,929.49
2019-01-30T11:25:27.684Z,929.47
2019-01-30T11:26:27.753Z,929.44
2019-01-30T11:27:27.798Z,929.46
2019-01-30T11:28:27.862Z,929.43
2019-01-30T11:29:27.915Z,929.48
2019-01-30T11:30:28.036Z,929.49
2019-01-30T11:31:28.054Z,929.48
2019-01-30T11:32:28.117Z,929.48
2019-01-30T11:33:28.170Z,929.46
2019-01-30T11:34:28.238Z,929.50
2019-01-30T11:35:28.283Z,929.49
2019-01-30T11:36:28.339Z,929.50
2019-01-30T11:37:28.438Z,929.45
2019-01-30T11:38:28.506Z,929.48
2019-01-30T11:39:28.584Z,929.53
2019-01-30T11:40:28.611Z,929.53
2019-01-30T11:41:28.675Z,929.52
2019-01-30T11:42:28.748Z,929.54
2019-01-30T11:43:28.809Z,929.60
2019-01-30T11:44:28.857Z,929.59
2019-01-30T11:45:28.963Z,929.56
2019-01-30T11:46:29.123Z,929.54
2019-01-30T11:47:29.062Z,929.60
2019-01-30T11:48:29.095Z,929.53
2019-01-30T11:49:29.181Z,929.55
2019-01-30T11:50:29.223Z,929.58
2019-01-30T11:51:29.282Z,929.57
2019-01-30T11:52:29.356Z,929.52
2019-01-30T11:53:29.455Z,929.52
2019-01-30T11:54:38.674Z,929.51
2019-01-30T11:55:29.543Z,929.53
2019-01-30T11:56:29.599Z,929.50
2019-01-30T11:57:29.679Z,929.53
2019-01-30T11:58:29.856Z,929.52
2019-01-30T11:59:29.766Z,929.53
2019-01-30T12:00:30.657Z,929.53
2019-01-30T12:01:29.909Z,929.52
2019-01-30T12:02:30.043Z,929.54
2019-01-30T12:03:30.085Z,929.56
2019-01-30T12:04:30.152Z,929.60
2019-01-30T12:05:30.170Z,929.58
2019-01-30T12:06:30.247Z,929.60
2019-01-30T12:07:30.283Z,929.64
2019-01-30T12:08:30.372Z,929.62
2019-01-30T12:09:30.405Z,929.61
2019-01-30T12:10:30.465Z,929.58
2019-01-30T12:11:30.548Z,929.63
2019-01-30T12:12:30.613Z,929.64
2019-01-30T12:13:30.686Z,929.64
2019-01-30T12:14:30.738Z,929.64
2019-01-30T12:15:30.785Z,929.64
2019-01-30T12:16:30.870Z,929.66
2019-01-30T12:17:30.978Z,929.69
2019-01-30T12:18:30.982Z,929.68
2019-01-30T12:19:31.036Z,929.70
2019-01-30T12:20:31.152Z,929.65
2019-01-30T12:21:31.174Z,929.66
2019-01-30T12:22:31.230Z,929.70
2019-01-30T12:23:31.338Z,929.70
2019-01-30T12:24:31.363Z,929.69
2019-01-30T12:25:31.428Z,929.66
2019-01-30T12:26:31.488Z,929.68
2019-01-30T12:27:31.588Z,929.67
2019-01-30T12:28:31.612Z,929.69
2019-01-30T12:29:31.707Z,929.69
2019-01-30T12:30:31.809Z,929.69
2019-01-30T12:31:31.832Z,929.72
2019-01-30T12:32:31.892Z,929.65
2019-01-30T12:33:31.948Z,929.68